Time;durP1;ratioP1;P1;durP2;ratioP2;P2;SDS_P1;SDS_P2;PMS_P1;PMS_P2;Temp;Humidity;BMP_temperature;BMP_pressure;BME280_temperature;BME280_humidity;BME280_pressure;Samples;Min_cycle;Max_cycle;Signal;HPM_P1;HPM_P2
2024/04/01 00:01:50;;;;;;;40.08;16.65;;;8.50;99.90;;;;;;5035302;28;20496;-60
2024/04/01 00:04:16;;;;;;;36.20;17.15;;;8.50;99.90;;;;;;5033127;28;20022;-60
2024/04/01 00:06:41;;;;;;;40.25;17.88;;;8.50;99.90;;;;;;5035423;28;20461;-60
2024/04/01 00:09:07;;;;;;;36.08;19.13;;;8.50;99.90;;;;;;5035262;28;20692;-59
2024/04/01 00:11:32;;;;;;;45.78;18.35;;;8.50;99.90;;;;;;5035452;28;20025;-60
2024/04/01 00:13:58;;;;;;;48.90;19.80;;;8.50;99.90;;;;;;5033305;28;20127;-60
2024/04/01 00:16:23;;;;;;;48.38;18.55;;;8.40;99.90;;;;;;5036555;28;20028;-59
2024/04/01 00:18:49;;;;;;;29.15;14.32;;;8.40;99.90;;;;;;5038433;28;20033;-60
2024/04/01 00:21:14;;;;;;;35.40;16.42;;;8.40;99.90;;;;;;5036595;28;20445;-60
2024/04/01 00:23:40;;;;;;;34.83;16.45;;;8.40;99.90;;;;;;5032157;28;20112;-60
2024/04/01 00:26:05;;;;;;;38.55;16.25;;;8.40;99.90;;;;;;5036051;28;20033;-60
2024/04/01 00:28:31;;;;;;;43.70;17.95;;;8.50;99.90;;;;;;5032084;28;20025;-60
2024/04/01 00:30:57;;;;;;;37.47;15.05;;;8.50;99.90;;;;;;5033335;28;20025;-59
2024/04/01 00:33:23;;;;;;;29.42;14.88;;;8.40;99.90;;;;;;5038256;28;20060;-60
2024/04/01 00:35:48;;;;;;;44.60;16.35;;;8.50;99.90;;;;;;5035163;28;20089;-60
2024/04/01 00:38:13;;;;;;;39.38;17.40;;;8.50;99.90;;;;;;5038494;28;20032;-60
2024/04/01 00:40:39;;;;;;;31.48;16.58;;;8.60;99.90;;;;;;5031844;28;20050;-60
2024/04/01 00:43:09;;;;;;;34.20;15.45;;;8.60;99.90;;;;;;5034083;28;20370;-61
2024/04/01 00:45:42;;;;;;;32.80;16.00;;;8.60;99.90;;;;;;5037777;28;20149;-60
2024/04/01 00:48:09;;;;;;;35.28;15.75;;;8.60;99.90;;;;;;5047577;28;20306;-60
2024/04/01 00:50:39;;;;;;;37.83;17.83;;;8.70;99.90;;;;;;5034723;28;20083;-61
2024/04/01 00:53:07;;;;;;;34.47;15.85;;;8.70;99.90;;;;;;5048580;28;20523;-60
2024/04/01 00:55:34;;;;;;;36.28;15.07;;;8.70;99.90;;;;;;5037709;28;20017;-60
2024/04/01 00:58:01;;;;;;;29.42;14.55;;;8.80;99.90;;;;;;5035874;28;20021;-61
2024/04/01 01:00:27;;;;;;;26.85;15.10;;;8.80;99.90;;;;;;5031319;28;20033;-60
2024/04/01 01:02:53;;;;;;;38.63;18.88;;;8.80;99.90;;;;;;5037922;28;20972;-60
2024/04/01 01:05:20;;;;;;;30.40;16.95;;;8.80;99.90;;;;;;5038312;28;20032;-60
2024/04/01 01:07:45;;;;;;;33.60;17.45;;;8.90;99.90;;;;;;5038675;28;20289;-62
2024/04/01 01:10:11;;;;;;;47.67;19.65;;;8.80;99.90;;;;;;5038311;28;20209;-60
2024/04/01 01:12:38;;;;;;;29.75;15.93;;;8.90;99.90;;;;;;5040145;28;20037;-60
2024/04/01 01:15:05;;;;;;;40.92;17.13;;;8.90;99.90;;;;;;5037859;28;20024;-61
2024/04/01 01:17:31;;;;;;;35.88;17.85;;;8.80;99.90;;;;;;5038462;28;20080;-61
2024/04/01 01:19:57;;;;;;;33.53;17.33;;;8.80;99.90;;;;;;5030127;28;20478;-61
2024/04/01 01:22:35;;;;;;;36.63;16.48;;;8.90;99.90;;;;;;5038399;28;20040;-65
2024/04/01 01:25:01;;;;;;;40.53;15.52;;;8.90;99.90;;;;;;5038451;28;20435;-60
2024/04/01 01:27:27;;;;;;;33.00;16.05;;;8.80;99.90;;;;;;5038239;28;20033;-61
2024/04/01 01:29:52;;;;;;;32.78;15.60;;;8.80;99.90;;;;;;5038387;28;20037;-60
2024/04/01 01:32:18;;;;;;;27.77;14.60;;;8.80;99.90;;;;;;5034255;28;20048;-60
2024/04/01 01:34:44;;;;;;;33.80;14.70;;;8.80;99.90;;;;;;5038209;28;20388;-60
2024/04/01 01:37:10;;;;;;;27.67;15.30;;;8.70;99.90;;;;;;5038175;28;20112;-59
2024/04/01 01:39:35;;;;;;;37.65;15.73;;;8.70;99.90;;;;;;5036845;28;20036;-60
2024/04/01 01:42:01;;;;;;;29.00;16.02;;;8.70;99.90;;;;;;5037956;28;20092;-60
2024/04/01 01:44:26;;;;;;;30.42;14.38;;;8.70;99.90;;;;;;5038022;28;20037;-60
2024/04/01 01:46:52;;;;;;;33.70;17.98;;;8.70;99.90;;;;;;5038442;28;20029;-60
2024/04/01 01:49:17;;;;;;;34.47;15.82;;;8.60;99.90;;;;;;5038036;28;20041;-60
2024/04/01 01:51:43;;;;;;;31.63;16.85;;;8.60;99.90;;;;;;5035905;28;20486;-60
2024/04/01 01:54:09;;;;;;;39.95;17.90;;;8.60;99.90;;;;;;5042140;28;20025;-60
2024/04/01 01:56:34;;;;;;;37.40;19.67;;;8.50;99.90;;;;;;5037540;28;20144;-60
2024/04/01 01:58:59;;;;;;;37.97;17.65;;;8.50;99.90;;;;;;5041525;28;20108;-60
2024/04/01 02:01:25;;;;;;;43.70;16.70;;;8.50;99.90;;;;;;5041792;28;20094;-60
2024/04/01 02:03:50;;;;;;;36.97;16.02;;;8.50;99.90;;;;;;5041556;28;20055;-60
2024/04/01 02:06:16;;;;;;;35.35;17.27;;;8.50;99.90;;;;;;5041353;28;20033;-60
2024/04/01 02:08:41;;;;;;;31.23;15.80;;;8.50;99.90;;;;;;5038132;28;20076;-60
2024/04/01 02:11:12;;;;;;;30.85;16.17;;;8.50;99.90;;;;;;5041201;28;20041;-60
2024/04/01 02:13:40;;;;;;;36.72;17.88;;;8.50;99.90;;;;;;5037176;28;20393;-60
2024/04/01 02:16:08;;;;;;;38.30;18.35;;;8.50;99.90;;;;;;5041031;28;20036;-59
2024/04/01 02:18:34;;;;;;;36.45;17.50;;;8.50;99.90;;;;;;5041307;28;20025;-59
2024/04/01 02:21:00;;;;;;;37.30;17.08;;;8.60;99.90;;;;;;5037166;28;20523;-59
2024/04/01 02:23:31;;;;;;;34.95;17.52;;;8.60;99.90;;;;;;5036766;28;20484;-59
2024/04/01 02:26:00;;;;;;;47.45;20.83;;;8.60;99.90;;;;;;5040130;28;20044;-58
2024/04/01 02:28:26;;;;;;;37.10;18.60;;;8.60;99.90;;;;;;5048858;28;20043;-58
2024/04/01 02:30:51;;;;;;;35.15;17.00;;;8.50;99.90;;;;;;5039047;28;20497;-59
2024/04/01 02:33:17;;;;;;;39.80;17.27;;;8.50;99.90;;;;;;5033877;28;20030;-59
2024/04/01 02:35:43;;;;;;;41.55;18.75;;;8.50;99.90;;;;;;5036029;28;20775;-59
2024/04/01 02:38:08;;;;;;;40.38;16.20;;;8.40;99.90;;;;;;5032730;28;20112;-58
2024/04/01 02:40:33;;;;;;;36.50;16.33;;;8.40;99.90;;;;;;5035015;28;20544;-59
2024/04/01 02:42:59;;;;;;;37.85;17.88;;;8.40;99.90;;;;;;5040646;28;20074;-58
2024/04/01 02:45:24;;;;;;;40.28;18.08;;;8.30;99.90;;;;;;5040996;28;20083;-58
2024/04/01 02:47:50;;;;;;;28.27;15.18;;;8.40;99.90;;;;;;5042794;28;20420;-59
2024/04/01 02:50:15;;;;;;;45.47;17.52;;;8.30;99.90;;;;;;5040462;28;20021;-59
2024/04/01 02:52:41;;;;;;;30.70;17.90;;;8.30;99.90;;;;;;5040337;28;20576;-59
2024/04/01 02:55:09;;;;;;;34.88;16.75;;;8.30;99.90;;;;;;5040633;28;20040;-58
2024/04/01 02:57:35;;;;;;;42.70;17.15;;;8.30;99.90;;;;;;5040179;28;20054;-59
2024/04/01 03:00:01;;;;;;;37.08;19.30;;;8.20;99.90;;;;;;5040357;28;20029;-59
2024/04/01 03:02:27;;;;;;;37.97;17.40;;;8.20;99.90;;;;;;5040282;28;20028;-59
2024/04/01 03:04:52;;;;;;;35.35;18.02;;;8.20;99.90;;;;;;5041037;28;20031;-59
2024/04/01 03:07:18;;;;;;;65.43;24.48;;;8.20;99.90;;;;;;5039957;28;20834;-58
2024/04/01 03:09:45;;;;;;;39.45;20.58;;;8.20;99.90;;;;;;5040197;28;20045;-58
2024/04/01 03:12:11;;;;;;;45.75;19.40;;;8.30;99.90;;;;;;5039912;28;20481;-59
2024/04/01 03:14:36;;;;;;;42.35;20.63;;;8.30;99.90;;;;;;5039950;28;20033;-59
2024/04/01 03:17:02;;;;;;;37.72;18.85;;;8.30;99.90;;;;;;5040048;28;20038;-58
2024/04/01 03:19:28;;;;;;;39.67;18.95;;;8.30;99.90;;;;;;5039913;28;20037;-58
2024/04/01 03:21:53;;;;;;;40.33;19.17;;;8.30;99.90;;;;;;5041905;28;20041;-59
2024/04/01 03:24:19;;;;;;;48.72;20.90;;;8.30;99.90;;;;;;5040020;28;20149;-58
2024/04/01 03:26:46;;;;;;;48.25;20.25;;;8.30;99.90;;;;;;5039568;28;20389;-59
2024/04/01 03:29:11;;;;;;;44.17;19.27;;;8.20;99.90;;;;;;5039889;28;20028;-59
2024/04/01 03:31:37;;;;;;;37.38;19.08;;;8.20;99.90;;;;;;5039662;28;20079;-59
2024/04/01 03:34:02;;;;;;;48.72;19.95;;;8.20;99.90;;;;;;5041258;28;20030;-59
2024/04/01 03:36:28;;;;;;;42.88;18.88;;;8.20;99.90;;;;;;5039160;28;20044;-59
2024/04/01 03:38:53;;;;;;;35.38;17.20;;;8.20;99.90;;;;;;5030570;28;20033;-58
2024/04/01 03:41:19;;;;;;;41.55;19.08;;;8.20;99.90;;;;;;5037815;28;20049;-58
2024/04/01 03:43:45;;;;;;;47.50;19.13;;;8.20;99.90;;;;;;5039784;28;20029;-59
2024/04/01 03:46:10;;;;;;;45.70;19.10;;;8.20;99.90;;;;;;5039441;28;20021;-58
2024/04/01 03:48:36;;;;;;;43.85;19.00;;;8.20;99.90;;;;;;5034982;28;20421;-59
2024/04/01 03:51:01;;;;;;;39.63;18.25;;;8.20;99.90;;;;;;5033328;28;20044;-59
2024/04/01 03:53:27;;;;;;;52.10;24.52;;;8.20;99.90;;;;;;5039564;28;20473;-59
2024/04/01 03:55:52;;;;;;;51.13;22.60;;;8.20;99.90;;;;;;5039446;28;20499;-58
2024/04/01 03:58:18;;;;;;;45.13;19.75;;;8.20;99.90;;;;;;5039445;28;20036;-58
2024/04/01 04:00:44;;;;;;;45.10;19.65;;;8.30;99.90;;;;;;5031386;28;20025;-58
2024/04/01 04:03:09;;;;;;;56.15;21.85;;;8.30;99.90;;;;;;5034835;28;20021;-59
2024/04/01 04:05:36;;;;;;;56.63;23.23;;;8.30;99.90;;;;;;5041415;28;20017;-59
2024/04/01 04:08:01;;;;;;;63.15;23.88;;;8.40;99.90;;;;;;5039460;28;20029;-59
2024/04/01 04:10:28;;;;;;;46.40;22.05;;;8.50;99.90;;;;;;5038749;28;20044;-59
2024/04/01 04:12:53;;;;;;;48.03;22.05;;;8.50;99.90;;;;;;5035403;28;20088;-58
2024/04/01 04:15:19;;;;;;;64.80;23.52;;;8.60;99.90;;;;;;5037665;28;20684;-58
2024/04/01 04:17:44;;;;;;;63.47;23.05;;;8.60;99.90;;;;;;5034287;28;20029;-58
2024/04/01 04:20:11;;;;;;;57.42;22.02;;;8.70;99.90;;;;;;5041034;28;20432;-58
2024/04/01 04:22:36;;;;;;;53.92;24.25;;;8.80;99.90;;;;;;5034978;28;20444;-58
2024/04/01 04:25:02;;;;;;;53.63;21.77;;;8.80;99.90;;;;;;5035652;28;20052;-59
2024/04/01 04:27:27;;;;;;;50.97;20.92;;;8.90;99.90;;;;;;5036687;28;20048;-59
2024/04/01 04:29:53;;;;;;;52.28;21.42;;;8.90;99.90;;;;;;5038745;28;20692;-59
2024/04/01 04:32:19;;;;;;;45.50;21.08;;;9.00;99.90;;;;;;5035020;28;20029;-59
2024/04/01 04:34:44;;;;;;;53.47;22.38;;;9.00;99.90;;;;;;5038765;28;20427;-58
2024/04/01 04:37:10;;;;;;;56.50;22.48;;;9.00;99.90;;;;;;5052153;28;20021;-58
2024/04/01 04:39:36;;;;;;;62.92;23.55;;;9.10;99.90;;;;;;5028427;28;20078;-58
2024/04/01 04:42:02;;;;;;;57.13;22.98;;;9.10;99.90;;;;;;5034729;28;20033;-58
2024/04/01 04:44:28;;;;;;;66.65;25.35;;;9.10;99.90;;;;;;5035272;28;20031;-59
2024/04/01 04:46:54;;;;;;;70.07;22.95;;;9.10;99.90;;;;;;5037659;28;20483;-58
2024/04/01 04:49:19;;;;;;;52.92;20.45;;;9.20;99.90;;;;;;5034505;28;20032;-58
2024/04/01 04:51:45;;;;;;;47.35;20.88;;;9.20;99.90;;;;;;5037092;28;20424;-58
2024/04/01 04:54:10;;;;;;;58.10;21.95;;;9.30;99.90;;;;;;5030378;28;20508;-59
2024/04/01 04:56:36;;;;;;;57.78;23.52;;;9.30;99.90;;;;;;5038870;28;20107;-59
2024/04/01 04:59:03;;;;;;;55.97;22.23;;;9.40;99.90;;;;;;5034633;28;20409;-58
2024/04/01 05:01:29;;;;;;;55.38;20.85;;;9.50;99.90;;;;;;5030323;28;20017;-59
2024/04/01 05:03:55;;;;;;;73.47;26.88;;;9.60;99.90;;;;;;5033870;28;20017;-58
2024/04/01 05:06:20;;;;;;;65.55;23.58;;;9.60;99.90;;;;;;5031272;28;20083;-58
2024/04/01 05:08:46;;;;;;;55.65;20.85;;;9.70;99.90;;;;;;5032064;28;20081;-60
2024/04/01 05:11:11;;;;;;;67.00;21.35;;;9.70;99.90;;;;;;5053897;28;20021;-59
2024/04/01 05:13:37;;;;;;;68.80;23.73;;;9.80;99.90;;;;;;5033464;28;20029;-58
2024/04/01 05:16:05;;;;;;;75.90;25.85;;;9.80;99.90;;;;;;5029419;28;20032;-59
2024/04/01 05:18:31;;;;;;;58.72;21.40;;;9.90;99.90;;;;;;5033844;28;20025;-59
2024/04/01 05:20:58;;;;;;;60.83;22.38;;;10.00;99.90;;;;;;5032051;28;20036;-58
2024/04/01 05:23:23;;;;;;;61.60;21.20;;;10.00;99.90;;;;;;5036510;28;20511;-59
2024/04/01 05:25:49;;;;;;;50.28;17.83;;;10.00;99.90;;;;;;5030041;28;20098;-58
2024/04/01 05:28:15;;;;;;;56.70;19.13;;;10.00;99.90;;;;;;5034637;28;20128;-58
2024/04/01 05:30:40;;;;;;;49.45;18.85;;;10.10;99.90;;;;;;5035492;28;20017;-59
2024/04/01 05:33:06;;;;;;;45.97;18.35;;;10.10;99.90;;;;;;5039200;28;20039;-59
2024/04/01 05:35:33;;;;;;;64.90;22.25;;;10.10;99.90;;;;;;5039702;28;20482;-59
2024/04/01 05:37:59;;;;;;;48.00;19.63;;;10.10;99.90;;;;;;5033860;28;20473;-58
2024/04/01 05:40:26;;;;;;;60.55;19.52;;;10.10;99.90;;;;;;5031819;28;20029;-58
2024/04/01 05:42:52;;;;;;;54.90;20.02;;;10.20;99.90;;;;;;5035056;28;20052;-58
2024/04/01 05:45:17;;;;;;;46.60;18.27;;;10.20;99.90;;;;;;5035748;28;20409;-59
2024/04/01 05:47:43;;;;;;;55.92;18.58;;;10.20;99.90;;;;;;5039323;28;20027;-59
2024/04/01 05:50:08;;;;;;;57.97;19.70;;;10.30;99.90;;;;;;5037743;28;20128;-58
2024/04/01 05:52:34;;;;;;;46.35;18.48;;;10.50;99.90;;;;;;5035359;28;20041;-59
2024/04/01 05:55:00;;;;;;;64.75;19.48;;;10.90;99.90;;;;;;5033073;28;20033;-59
2024/04/01 05:57:25;;;;;;;50.67;17.00;;;11.10;99.90;;;;;;5036654;28;20022;-59
2024/04/01 05:59:51;;;;;;;49.20;18.27;;;11.30;99.90;;;;;;5034148;28;20404;-59
2024/04/01 06:02:16;;;;;;;60.95;17.90;;;11.30;99.90;;;;;;5031266;28;20073;-58
2024/04/01 06:04:42;;;;;;;58.30;16.48;;;11.70;99.90;;;;;;5033931;28;20104;-59
2024/04/01 06:07:07;;;;;;;49.67;15.15;;;11.90;99.90;;;;;;5037585;28;20047;-59
2024/04/01 06:09:34;;;;;;;41.80;15.77;;;11.80;99.90;;;;;;5034836;28;20069;-59
2024/04/01 06:11:59;;;;;;;42.05;14.38;;;12.40;99.90;;;;;;5039242;28;20056;-59
2024/04/01 06:14:25;;;;;;;45.72;14.77;;;13.00;99.90;;;;;;5035344;28;20029;-59
2024/04/01 06:16:50;;;;;;;51.70;16.35;;;13.60;99.90;;;;;;5038892;28;20531;-59
2024/04/01 06:19:17;;;;;;;43.25;14.50;;;14.30;99.90;;;;;;5050547;28;20037;-59
2024/04/01 06:21:42;;;;;;;48.70;15.68;;;15.10;99.90;;;;;;5039313;28;20020;-59
2024/04/01 06:24:08;;;;;;;43.67;14.52;;;15.50;99.90;;;;;;5040006;28;20452;-59
2024/04/01 06:26:33;;;;;;;44.30;14.02;;;16.00;99.90;;;;;;5040439;28;20029;-59
2024/04/01 06:28:59;;;;;;;45.22;13.48;;;15.90;96.10;;;;;;5039150;28;20313;-59
2024/04/01 06:31:25;;;;;;;43.30;13.60;;;15.50;98.90;;;;;;5034497;28;20049;-59
2024/04/01 06:33:50;;;;;;;50.80;14.50;;;15.10;97.60;;;;;;5038816;28;20070;-59
2024/04/01 06:36:16;;;;;;;46.05;15.07;;;14.70;97.30;;;;;;5033862;28;20047;-59
2024/04/01 06:38:41;;;;;;;51.08;14.48;;;14.40;96.60;;;;;;5035000;28;20028;-59
2024/04/01 06:41:07;;;;;;;40.88;12.98;;;14.20;97.00;;;;;;5026897;28;20111;-57
2024/04/01 06:43:33;;;;;;;52.55;13.65;;;14.00;97.20;;;;;;5033685;28;20044;-57
2024/04/01 06:46:00;;;;;;;46.10;13.30;;;13.80;97.30;;;;;;5033013;28;20021;-59
2024/04/01 06:48:27;;;;;;;48.00;13.55;;;13.70;97.10;;;;;;5034024;28;20025;-58
2024/04/01 06:50:53;;;;;;;53.83;13.07;;;13.50;96.90;;;;;;5047170;28;20167;-58
2024/04/01 06:53:19;;;;;;;60.13;15.35;;;13.50;97.30;;;;;;5036802;28;20025;-58
2024/04/01 06:55:45;;;;;;;45.42;13.57;;;13.40;96.70;;;;;;5039465;28;20021;-57
2024/04/01 06:58:11;;;;;;;37.72;13.05;;;13.40;96.90;;;;;;5037538;28;20068;-58
2024/04/01 07:00:37;;;;;;;58.53;14.05;;;13.40;97.00;;;;;;5030921;28;20048;-58
2024/04/01 07:03:03;;;;;;;38.67;13.10;;;13.40;96.60;;;;;;5039497;28;20048;-58
2024/04/01 07:05:30;;;;;;;50.38;12.50;;;13.40;96.30;;;;;;5037791;28;20474;-59
2024/04/01 07:07:56;;;;;;;51.42;13.48;;;13.40;96.60;;;;;;5039653;28;20037;-58
2024/04/01 07:10:21;;;;;;;48.05;12.88;;;13.40;96.20;;;;;;5034806;28;20048;-58
2024/04/01 07:12:47;;;;;;;46.40;13.93;;;13.40;96.50;;;;;;5040812;28;20040;-58
2024/04/01 07:15:13;;;;;;;55.97;14.55;;;13.40;96.50;;;;;;5039373;28;20497;-58
2024/04/01 07:17:38;;;;;;;52.63;14.30;;;13.40;96.20;;;;;;5034459;28;20039;-58
2024/04/01 07:20:05;;;;;;;60.90;13.98;;;13.40;95.90;;;;;;5031334;28;20021;-60
2024/04/01 07:22:31;;;;;;;48.75;13.50;;;13.50;95.70;;;;;;5040787;28;20507;-58
2024/04/01 07:24:57;;;;;;;56.78;13.95;;;13.60;95.20;;;;;;5036045;28;20041;-58
2024/04/01 07:27:22;;;;;;;44.33;13.07;;;13.60;94.80;;;;;;5035326;28;20025;-58
2024/04/01 07:29:48;;;;;;;54.92;13.30;;;13.80;94.50;;;;;;5035812;28;20525;-58
2024/04/01 07:32:13;;;;;;;54.38;13.50;;;14.10;94.10;;;;;;5038467;28;20711;-58
2024/04/01 07:34:39;;;;;;;46.67;13.57;;;14.30;93.30;;;;;;5042817;28;20021;-58
2024/04/01 07:37:07;;;;;;;63.78;15.20;;;14.40;92.70;;;;;;5035726;28;20029;-57
2024/04/01 07:39:33;;;;;;;53.17;12.90;;;14.60;91.90;;;;;;5030295;28;20025;-59
2024/04/01 07:41:59;;;;;;;52.38;14.55;;;14.80;91.40;;;;;;5038284;28;20119;-59
2024/04/01 07:44:24;;;;;;;55.88;13.57;;;15.00;90.90;;;;;;5041838;28;20024;-59
2024/04/01 07:46:50;;;;;;;61.65;14.55;;;15.20;90.50;;;;;;5040000;28;20037;-59
2024/04/01 07:49:15;;;;;;;51.28;12.68;;;15.20;89.30;;;;;;5039619;28;20037;-58
2024/04/01 07:51:41;;;;;;;50.20;13.18;;;15.20;88.90;;;;;;5037972;28;20027;-59
2024/04/01 07:54:06;;;;;;;44.53;11.90;;;15.20;87.50;;;;;;5039772;28;20573;-58
2024/04/01 07:56:32;;;;;;;64.75;13.55;;;15.30;87.80;;;;;;5039238;28;20106;-58
2024/04/01 07:58:57;;;;;;;47.85;13.70;;;15.30;87.80;;;;;;5033224;28;20568;-59
2024/04/01 08:01:23;;;;;;;59.63;15.00;;;15.20;85.50;;;;;;5039856;28;20013;-59
2024/04/01 08:03:48;;;;;;;38.03;10.30;;;15.20;85.00;;;;;;5035564;28;20021;-59
2024/04/01 08:06:15;;;;;;;49.15;12.10;;;15.30;85.10;;;;;;5038125;28;20029;-59
2024/04/01 08:08:41;;;;;;;44.38;11.65;;;15.40;85.00;;;;;;5039590;28;20068;-59
2024/04/01 08:11:06;;;;;;;46.83;11.70;;;15.50;85.30;;;;;;5039221;28;20064;-59
2024/04/01 08:13:32;;;;;;;47.38;11.73;;;15.50;84.30;;;;;;5041538;28;20447;-59
2024/04/01 08:16:01;;;;;;;59.28;12.57;;;15.50;83.10;;;;;;5039856;28;20040;-59
2024/04/01 08:18:27;;;;;;;55.17;12.65;;;15.50;82.80;;;;;;5039607;28;20101;-65
2024/04/01 08:20:53;;;;;;;65.38;13.05;;;15.50;81.40;;;;;;5034310;28;20553;-59
2024/04/01 08:23:19;;;;;;;50.72;11.73;;;15.50;81.50;;;;;;5029655;28;20048;-59
2024/04/01 08:25:45;;;;;;;51.13;10.88;;;15.60;81.20;;;;;;5032647;28;20044;-59
2024/04/01 08:28:10;;;;;;;46.83;10.90;;;15.70;80.40;;;;;;5034888;28;20063;-59
2024/04/01 08:30:36;;;;;;;54.10;11.23;;;15.70;80.20;;;;;;5040819;28;20446;-59
2024/04/01 08:33:01;;;;;;;37.17;10.23;;;15.90;78.60;;;;;;5038853;28;20032;-60
2024/04/01 08:35:27;;;;;;;44.55;10.80;;;16.30;79.20;;;;;;5035655;28;20079;-59
2024/04/01 08:37:52;;;;;;;43.25;10.95;;;16.50;77.70;;;;;;5039005;28;20459;-60
2024/04/01 08:40:19;;;;;;;42.53;10.68;;;16.60;77.10;;;;;;5028186;28;20075;-61
2024/04/01 08:42:48;;;;;;;48.80;12.38;;;16.80;76.20;;;;;;5031679;28;20051;-59
2024/04/01 08:45:14;;;;;;;46.00;10.50;;;17.00;75.60;;;;;;5036125;28;20223;-60
2024/04/01 08:47:43;;;;;;;39.05;9.93;;;17.00;73.80;;;;;;5040844;28;20028;-60
2024/04/01 08:50:20;;;;;;;43.80;11.32;;;17.10;73.60;;;;;;5033091;28;20385;-63
2024/04/01 08:53:07;;;;;;;44.15;9.85;;;17.30;72.80;;;;;;5027821;28;20030;-59
2024/04/01 08:55:34;;;;;;;43.65;10.52;;;17.60;70.80;;;;;;5054454;28;20533;-60
2024/04/01 08:58:00;;;;;;;41.33;10.15;;;18.10;70.10;;;;;;5031476;28;20064;-60
2024/04/01 09:00:26;;;;;;;30.52;9.90;;;18.70;68.30;;;;;;5038186;28;20590;-59
2024/04/01 09:02:51;;;;;;;40.63;10.32;;;19.50;66.00;;;;;;5041229;28;21673;-59
2024/04/01 09:05:17;;;;;;;44.88;10.50;;;20.20;64.70;;;;;;5040990;28;20025;-60
2024/04/01 09:07:42;;;;;;;51.05;10.05;;;20.30;62.60;;;;;;5042803;28;20086;-59
2024/04/01 09:10:08;;;;;;;50.60;9.88;;;20.10;62.00;;;;;;5039299;28;22299;-61
2024/04/01 09:12:34;;;;;;;43.65;8.93;;;20.00;58.00;;;;;;5040298;28;20040;-60
2024/04/01 09:15:00;;;;;;;31.88;8.40;;;19.80;54.90;;;;;;5039407;28;20036;-60
2024/04/01 09:17:26;;;;;;;34.72;9.80;;;19.60;58.10;;;;;;5036390;28;20159;-60
2024/04/01 09:19:52;;;;;;;32.58;7.57;;;19.60;56.10;;;;;;5037314;28;20135;-60
2024/04/01 09:22:17;;;;;;;33.90;7.82;;;19.50;56.30;;;;;;5040549;28;20223;-61
2024/04/01 09:24:45;;;;;;;26.65;6.43;;;19.50;57.30;;;;;;5041821;28;20229;-60
2024/04/01 09:27:10;;;;;;;28.58;6.97;;;19.60;58.20;;;;;;5038352;28;20029;-60
2024/04/01 09:29:36;;;;;;;24.40;7.13;;;19.70;58.30;;;;;;5039707;28;20031;-60
2024/04/01 09:32:02;;;;;;;33.20;8.50;;;19.80;57.60;;;;;;5038568;28;20111;-60
2024/04/01 09:34:29;;;;;;;29.45;7.82;;;19.80;55.60;;;;;;5038202;28;20446;-60
2024/04/01 09:36:55;;;;;;;34.88;8.05;;;20.00;55.60;;;;;;5042897;28;20028;-59
2024/04/01 09:39:20;;;;;;;25.52;7.50;;;20.10;55.10;;;;;;5034100;28;20501;-59
2024/04/01 09:41:48;;;;;;;30.50;6.88;;;20.10;54.50;;;;;;5038643;28;20090;-61
2024/04/01 09:44:13;;;;;;;29.42;6.82;;;20.10;53.90;;;;;;5037924;28;20040;-61
2024/04/01 09:46:39;;;;;;;33.03;8.45;;;20.10;53.40;;;;;;5035948;28;20021;-58
2024/04/01 09:49:05;;;;;;;37.97;7.05;;;20.10;52.50;;;;;;5040122;28;20083;-59
2024/04/01 09:51:32;;;;;;;31.98;7.28;;;20.10;51.40;;;;;;5042498;28;20036;-59
2024/04/01 09:53:57;;;;;;;30.77;6.43;;;20.00;50.60;;;;;;5040494;28;20033;-59
2024/04/01 09:56:48;;;;;;;26.23;6.85;;;19.90;50.60;;;;;;5040512;28;20985;-59
2024/04/01 09:59:32;;;;;;;29.02;5.93;;;19.80;50.30;;;;;;5039215;28;20029;-58
2024/04/01 10:02:37;;;;;;;28.40;6.03;;;19.80;49.50;;;;;;5036368;28;20036;-58
2024/04/01 10:05:30;;;;;;;25.88;5.70;;;19.80;48.90;;;;;;5040548;28;20036;-58
2024/04/01 10:08:50;;;;;;;24.58;6.60;;;19.80;47.10;;;;;;5038944;28;20100;-60
2024/04/01 10:11:37;;;;;;;25.38;5.72;;;19.80;47.40;;;;;;5014944;28;20038;-59
2024/04/01 10:14:26;;;;;;;26.77;5.65;;;20.10;48.40;;;;;;5038665;28;20104;-59
2024/04/01 10:17:31;;;;;;;32.45;6.82;;;20.50;47.90;;;;;;5036474;28;20029;-60
2024/04/01 10:20:33;;;;;;;30.15;5.97;;;20.60;47.50;;;;;;5036415;28;20037;-59
2024/04/01 10:23:23;;;;;;;32.30;6.78;;;20.70;45.70;;;;;;5039043;28;20024;-59
2024/04/01 10:26:07;;;;;;;23.80;7.03;;;20.90;47.40;;;;;;5035501;28;20035;-59
2024/04/01 10:28:54;;;;;;;36.50;7.78;;;21.00;47.90;;;;;;5039002;28;20078;-59
2024/04/01 10:32:02;;;;;;;34.88;8.48;;;21.00;49.00;;;;;;5038957;28;20037;-59
2024/04/01 10:34:48;;;;;;;41.63;8.25;;;20.90;49.50;;;;;;5037950;28;20037;-59
2024/04/01 10:37:26;;;;;;;;;;;20.90;48.30;;;;;;5038505;28;20025;-59
2024/04/01 10:40:28;;;;;;;33.38;7.95;;;20.90;46.90;;;;;;5033797;28;19912;-59
2024/04/01 10:43:05;;;;;;;38.67;7.90;;;21.10;47.60;;;;;;5035747;28;20141;-59
2024/04/01 10:45:55;;;;;;;28.13;7.70;;;21.30;47.20;;;;;;5052086;28;20482;-59
2024/04/01 10:48:25;;;;;;;33.03;7.90;;;21.40;44.50;;;;;;5050388;28;20583;-59
2024/04/01 10:51:49;;;;;;;41.20;8.73;;;21.40;44.60;;;;;;5040746;28;20504;-59
2024/04/01 10:54:20;;;;;;;21.52;6.03;;;21.50;42.80;;;;;;5034173;28;20053;-59
2024/04/01 10:57:31;;;;;;;31.00;7.63;;;21.50;42.30;;;;;;5040955;28;20021;-59
2024/04/01 11:01:01;;;;;;;35.58;6.85;;;21.40;40.70;;;;;;5039422;28;20513;-60
2024/04/01 11:03:59;;;;;;;32.03;8.20;;;21.40;41.80;;;;;;4997177;28;20129;-59
2024/04/01 11:06:30;;;;;;;34.80;7.03;;;21.40;41.40;;;;;;5037157;28;20047;-59
2024/04/01 11:09:09;;;;;;;34.42;7.32;;;21.40;39.70;;;;;;5040609;28;20049;-59
2024/04/01 11:12:11;;;;;;;39.08;8.15;;;21.30;39.20;;;;;;5040648;28;20036;-59
2024/04/01 11:14:40;;;;;;;31.85;6.68;;;21.30;38.10;;;;;;5037264;28;20056;-59
2024/04/01 11:17:07;;;;;;;30.77;6.45;;;21.20;39.00;;;;;;5039924;28;20025;-59
2024/04/01 11:19:53;;;;;;;32.28;6.63;;;21.00;39.30;;;;;;5036468;28;20029;-59
2024/04/01 11:22:44;;;;;;;34.35;7.78;;;20.80;38.10;;;;;;5039940;28;20484;-60
2024/04/01 11:25:40;;;;;;;27.27;6.65;;;20.70;37.70;;;;;;5035231;28;20029;-60
2024/04/01 11:28:48;;;;;;;32.70;6.40;;;20.60;37.60;;;;;;5034735;28;20025;-59
2024/04/01 11:31:18;;;;;;;23.23;5.55;;;20.60;37.30;;;;;;5037961;28;20179;-60
2024/04/01 11:34:07;;;;;;;34.30;6.72;;;20.50;38.40;;;;;;5037904;28;20028;-60
2024/04/01 11:36:46;;;;;;;35.03;7.28;;;20.50;38.00;;;;;;5039782;28;20021;-59
2024/04/01 11:39:16;;;;;;;33.05;6.90;;;20.50;38.10;;;;;;5036589;28;20108;-59
2024/04/01 11:41:49;;;;;;;28.50;5.78;;;20.50;38.50;;;;;;5039748;28;20089;-59
2024/04/01 11:44:21;;;;;;;30.27;6.72;;;20.60;39.10;;;;;;5039669;28;20071;-60
2024/04/01 11:46:50;;;;;;;25.08;5.43;;;20.60;39.50;;;;;;5038348;28;20039;-59
2024/04/01 11:49:15;;;;;;;31.70;6.72;;;20.60;39.80;;;;;;5040028;28;20036;-59
2024/04/01 11:51:41;;;;;;;30.10;6.97;;;20.70;39.60;;;;;;5039496;28;20021;-59
2024/04/01 11:54:06;;;;;;;25.00;6.47;;;20.90;39.60;;;;;;5039422;28;20072;-59
2024/04/01 11:56:42;;;;;;;31.77;6.65;;;21.00;39.30;;;;;;5040089;28;20028;-59
2024/04/01 11:59:08;;;;;;;34.65;7.50;;;21.10;39.20;;;;;;5039478;28;20646;-59
2024/04/01 12:01:37;;;;;;;30.38;7.65;;;21.10;39.60;;;;;;5039136;28;20396;-59
2024/04/01 12:04:03;;;;;;;28.60;6.78;;;21.10;39.20;;;;;;5039225;28;20029;-59
2024/04/01 12:06:31;;;;;;;28.65;6.50;;;21.20;39.60;;;;;;5039641;28;20489;-58
2024/04/01 12:08:59;;;;;;;39.15;8.43;;;21.20;39.50;;;;;;5037235;28;20052;-59
2024/04/01 12:11:28;;;;;;;39.78;7.28;;;21.20;39.00;;;;;;5036569;28;20029;-60
2024/04/01 12:13:55;;;;;;;32.95;7.53;;;21.20;39.10;;;;;;5037123;28;20116;-59
2024/04/01 12:16:22;;;;;;;23.73;5.25;;;21.20;39.30;;;;;;5039449;28;20025;-59
2024/04/01 12:18:49;;;;;;;32.28;6.75;;;21.20;39.40;;;;;;5038892;28;20025;-59
2024/04/01 12:21:20;;;;;;;38.13;6.93;;;21.20;40.00;;;;;;5037637;28;20520;-59
2024/04/01 12:23:49;;;;;;;27.70;6.32;;;21.20;39.80;;;;;;5039448;28;20388;-59
2024/04/01 12:26:15;;;;;;;33.00;6.20;;;21.30;40.00;;;;;;5039494;28;20040;-59
2024/04/01 12:28:43;;;;;;;20.65;4.90;;;21.30;38.30;;;;;;5038988;28;20021;-59
2024/04/01 12:31:14;;;;;;;27.67;5.57;;;21.30;33.90;;;;;;5038726;28;20044;-59
2024/04/01 12:33:47;;;;;;;16.73;4.10;;;21.20;31.80;;;;;;5039116;28;20240;-59
2024/04/01 12:36:13;;;;;;;19.73;4.00;;;21.20;32.40;;;;;;5038892;28;20469;-59
2024/04/01 12:38:40;;;;;;;15.38;4.30;;;21.20;32.50;;;;;;5026469;28;20017;-59
2024/04/01 12:41:07;;;;;;;19.90;4.32;;;21.10;32.20;;;;;;5040510;28;20108;-59
2024/04/01 12:43:34;;;;;;;21.27;3.35;;;21.00;32.10;;;;;;5037802;28;20025;-59